Time;durP1;ratioP1;P1;durP2;ratioP2;P2;SDS_P1;SDS_P2;PMS_P1;PMS_P2;Temp;Humidity;BMP_temperature;BMP_pressure;BME280_temperature;BME280_humidity;BME280_pressure;Samples;Min_cycle;Max_cycle;Signal;HPM_P1;HPM_P2
2022/11/12 00:02:06;;;;;;;25.90;15.15;;;;;;;;;;4997778;28;20148;-71
2022/11/12 00:04:50;;;;;;;25.25;15.65;;;;;;;;;;5004711;28;20104;-71
2022/11/12 00:07:35;;;;;;;20.27;13.82;;;;;;;;;;5003674;28;20100;-71
2022/11/12 00:10:19;;;;;;;21.73;14.27;;;;;;;;;;5003446;28;20108;-72
2022/11/12 00:13:04;;;;;;;24.63;14.82;;;;;;;;;;5004516;28;20193;-71
2022/11/12 00:15:48;;;;;;;20.02;14.07;;;;;;;;;;5003628;28;20092;-72
2022/11/12 00:18:32;;;;;;;22.42;14.15;;;;;;;;;;5003965;28;20053;-71
2022/11/12 00:21:16;;;;;;;22.70;13.85;;;;;;;;;;5003388;28;20060;-72
2022/11/12 00:24:00;;;;;;;24.02;13.70;;;;;;;;;;4987720;28;20145;-71
2022/11/12 00:26:44;;;;;;;20.70;13.23;;;;;;;;;;5003968;28;20485;-72
2022/11/12 00:29:29;;;;;;;20.60;14.82;;;;;;;;;;5003467;28;20060;-72
2022/11/12 00:32:12;;;;;;;23.45;15.40;;;;;;;;;;5003249;28;20501;-72
2022/11/12 00:34:57;;;;;;;20.52;12.55;;;;;;;;;;5004227;28;20560;-71
2022/11/12 00:37:41;;;;;;;20.40;14.10;;;;;;;;;;5002215;28;20123;-71
2022/11/12 00:40:25;;;;;;;18.60;11.73;;;;;;;;;;5004644;28;20195;-71
2022/11/12 00:43:09;;;;;;;20.00;12.52;;;;;;;;;;5003806;28;20088;-72
2022/11/12 00:45:54;;;;;;;19.95;12.45;;;;;;;;;;5004139;28;20080;-72
2022/11/12 00:48:38;;;;;;;16.55;11.05;;;;;;;;;;5003335;28;20084;-72
2022/11/12 00:51:22;;;;;;;16.95;11.07;;;;;;;;;;5004972;28;20516;-71
2022/11/12 00:54:06;;;;;;;15.70;10.02;;;;;;;;;;5001653;28;20544;-71
2022/11/12 00:56:51;;;;;;;14.00;9.32;;;;;;;;;;4998676;28;20064;-72
2022/11/12 00:59:35;;;;;;;14.57;10.10;;;;;;;;;;5002338;28;20048;-72
2022/11/12 01:02:21;;;;;;;12.73;9.27;;;;;;;;;;5004067;28;20048;-72
2022/11/12 01:05:05;;;;;;;9.85;7.13;;;;;;;;;;4994518;28;20057;-72
2022/11/12 01:07:49;;;;;;;14.60;9.73;;;;;;;;;;5003156;28;20609;-72
2022/11/12 01:10:35;;;;;;;13.88;9.75;;;;;;;;;;5003730;28;20127;-71
2022/11/12 01:13:19;;;;;;;11.73;9.57;;;;;;;;;;5003268;28;20068;-72
2022/11/12 01:16:24;;;;;;;13.40;9.57;;;;;;;;;;5000474;28;20553;-71
2022/11/12 01:19:09;;;;;;;17.75;10.10;;;;;;;;;;5002943;28;20188;-72
2022/11/12 01:21:53;;;;;;;12.73;9.05;;;;;;;;;;5003014;28;20084;-72
2022/11/12 01:24:37;;;;;;;17.63;9.73;;;;;;;;;;5003244;28;20096;-71
2022/11/12 01:27:21;;;;;;;16.17;9.30;;;;;;;;;;5002121;28;20579;-71
2022/11/12 01:30:06;;;;;;;13.60;9.50;;;;;;;;;;4999167;28;20060;-72
2022/11/12 01:32:50;;;;;;;15.63;9.35;;;;;;;;;;5001623;28;20085;-71
2022/11/12 01:35:34;;;;;;;12.73;8.68;;;;;;;;;;5001072;28;20119;-71
2022/11/12 01:38:18;;;;;;;12.60;9.07;;;;;;;;;;4990902;28;20057;-71
2022/11/12 01:41:04;;;;;;;12.70;8.73;;;;;;;;;;5003073;28;20053;-72
2022/11/12 01:44:05;;;;;;;12.05;8.63;;;;;;;;;;5002719;28;20135;-71
2022/11/12 01:47:05;;;;;;;10.60;6.22;;;;;;;;;;5003998;28;20075;-72
2022/11/12 01:50:04;;;;;;;10.23;7.38;;;;;;;;;;5002773;28;20068;-71
2022/11/12 01:52:53;;;;;;;12.68;9.40;;;;;;;;;;5004047;28;20084;-72
2022/11/12 01:55:39;;;;;;;13.45;8.80;;;;;;;;;;5004382;28;20173;-72
2022/11/12 01:58:27;;;;;;;14.45;9.07;;;;;;;;;;4996921;28;20057;-71
2022/11/12 02:01:12;;;;;;;10.18;8.35;;;;;;;;;;5005017;28;20065;-72
2022/11/12 02:03:56;;;;;;;10.88;7.18;;;;;;;;;;5005154;28;20160;-72
2022/11/12 02:06:41;;;;;;;10.73;7.15;;;;;;;;;;5005341;28;20514;-75
2022/11/12 02:09:25;;;;;;;11.52;7.43;;;;;;;;;;5004233;28;20800;-71
2022/11/12 02:13:56;;;;;;;9.50;7.47;;;;;;;;;;5001087;28;20141;-71
2022/11/12 02:15:14;;;;;;;9.38;7.65;;;;;;;;;;5003269;28;20048;-71
2022/11/12 02:17:58;;;;;;;9.80;7.20;;;;;;;;;;4990482;28;20139;-72
2022/11/12 02:20:42;;;;;;;10.25;7.43;;;;;;;;;;5002763;28;20056;-71
2022/11/12 02:23:26;;;;;;;9.60;7.07;;;;;;;;;;5002015;28;20192;-72
2022/11/12 02:26:10;;;;;;;11.65;6.72;;;;;;;;;;4989024;28;20056;-72
2022/11/12 02:28:54;;;;;;;10.30;7.10;;;;;;;;;;5002799;28;20064;-71
2022/11/12 02:31:38;;;;;;;9.88;5.97;;;;;;;;;;4993394;28;20652;-72
2022/11/12 02:34:22;;;;;;;8.77;6.35;;;;;;;;;;5000817;28;20807;-71
2022/11/12 02:37:07;;;;;;;8.73;6.30;;;;;;;;;;4997485;28;20072;-72
2022/11/12 02:39:51;;;;;;;7.13;5.82;;;;;;;;;;5001845;28;20061;-71
2022/11/12 02:42:35;;;;;;;8.73;6.05;;;;;;;;;;5002567;28;20119;-71
2022/11/12 02:45:19;;;;;;;8.45;6.03;;;;;;;;;;5003094;28;20053;-71
2022/11/12 02:48:03;;;;;;;9.90;6.85;;;;;;;;;;4999477;28;20065;-71
2022/11/12 02:50:47;;;;;;;7.63;6.22;;;;;;;;;;5003479;28;20069;-71
2022/11/12 02:53:31;;;;;;;8.35;5.93;;;;;;;;;;4999042;28;20097;-71
2022/11/12 02:56:15;;;;;;;8.13;5.88;;;;;;;;;;5002117;28;20136;-71
2022/11/12 02:59:00;;;;;;;8.90;5.93;;;;;;;;;;5002377;28;20057;-71
2022/11/12 03:01:43;;;;;;;7.38;5.53;;;;;;;;;;5001462;28;20053;-71
2022/11/12 03:04:27;;;;;;;9.07;6.05;;;;;;;;;;5003073;28;20986;-72
2022/11/12 03:07:12;;;;;;;9.73;6.32;;;;;;;;;;5001582;28;20063;-71
2022/11/12 03:09:56;;;;;;;8.18;5.95;;;;;;;;;;5001781;28;20192;-71
2022/11/12 03:12:40;;;;;;;10.27;6.97;;;;;;;;;;5002210;28;20072;-71
2022/11/12 03:15:24;;;;;;;9.20;6.97;;;;;;;;;;5002213;28;20068;-71
2022/11/12 03:18:08;;;;;;;13.18;7.53;;;;;;;;;;4999425;28;20065;-71
2022/11/12 03:20:52;;;;;;;12.68;7.50;;;;;;;;;;5002732;28;20064;-71
2022/11/12 03:23:36;;;;;;;8.80;6.85;;;;;;;;;;5000676;28;20204;-72
2022/11/12 03:26:21;;;;;;;12.82;7.22;;;;;;;;;;5002851;28;20057;-71
2022/11/12 03:29:05;;;;;;;11.32;7.32;;;;;;;;;;5001664;28;20068;-72
2022/11/12 03:31:49;;;;;;;13.68;7.38;;;;;;;;;;5001222;28;20414;-71
2022/11/12 03:34:33;;;;;;;8.80;6.72;;;;;;;;;;5003240;28;20057;-71
2022/11/12 03:37:17;;;;;;;8.20;6.45;;;;;;;;;;5003612;28;20072;-72
2022/11/12 03:40:02;;;;;;;10.38;6.45;;;;;;;;;;5003540;28;20288;-70
2022/11/12 03:42:48;;;;;;;7.05;5.15;;;;;;;;;;5006926;28;20056;-70
2022/11/12 03:45:32;;;;;;;8.40;6.38;;;;;;;;;;5006105;28;20871;-70
2022/11/12 03:48:16;;;;;;;8.48;5.30;;;;;;;;;;5007042;28;20061;-69
2022/11/12 03:51:01;;;;;;;10.32;5.85;;;;;;;;;;5006831;28;20061;-70
2022/11/12 03:53:45;;;;;;;8.82;6.38;;;;;;;;;;5005449;28;20112;-69
2022/11/12 03:56:29;;;;;;;9.02;5.60;;;;;;;;;;5006775;28;21196;-69
2022/11/12 03:59:13;;;;;;;6.80;5.57;;;;;;;;;;5006793;28;20057;-70
2022/11/12 04:01:58;;;;;;;7.07;5.05;;;;;;;;;;5005865;28;20512;-70
2022/11/12 04:10:51;;;;;;;7.55;5.35;;;;;;;;;;5006845;28;20049;-70
2022/11/12 04:13:37;;;;;;;8.75;4.93;;;;;;;;;;5000188;28;20052;-70
2022/11/12 04:22:27;;;;;;;4.93;4.43;;;;;;;;;;4994928;28;20065;-70
2022/11/12 04:28:13;;;;;;;6.40;4.47;;;;;;;;;;5012577;28;20065;-70
2022/11/12 04:30:57;;;;;;;7.18;4.55;;;;;;;;;;5007464;28;20056;-70
2022/11/12 04:33:41;;;;;;;7.18;4.18;;;;;;;;;;5007099;28;20056;-71
2022/11/12 04:36:25;;;;;;;7.07;4.15;;;;;;;;;;5007001;28;20454;-70
2022/11/12 04:39:09;;;;;;;7.25;4.30;;;;;;;;;;5007064;28;20107;-70
2022/11/12 04:45:01;;;;;;;7.47;4.00;;;;;;;;;;5006782;28;20786;-70
2022/11/12 04:47:45;;;;;;;5.65;4.40;;;;;;;;;;5004457;28;20048;-69
2022/11/12 04:50:29;;;;;;;5.88;4.00;;;;;;;;;;5005361;28;20073;-69
2022/11/12 04:53:13;;;;;;;4.65;3.70;;;;;;;;;;5002664;28;20053;-69
2022/11/12 04:55:58;;;;;;;6.65;4.50;;;;;;;;;;5005372;28;20056;-69
2022/11/12 04:58:42;;;;;;;8.38;4.03;;;;;;;;;;4996013;28;20099;-71
2022/11/12 05:01:26;;;;;;;6.22;4.03;;;;;;;;;;5001313;28;20049;-70
2022/11/12 05:04:09;;;;;;;6.10;4.35;;;;;;;;;;5001558;28;20057;-70
2022/11/12 05:06:57;;;;;;;5.85;4.15;;;;;;;;;;5004055;28;20052;-70
2022/11/12 05:09:41;;;;;;;4.75;3.70;;;;;;;;;;5002424;28;20579;-70
2022/11/12 05:12:26;;;;;;;4.72;3.95;;;;;;;;;;5003594;28;20056;-70
2022/11/12 05:15:10;;;;;;;6.85;4.18;;;;;;;;;;5003216;28;20048;-70
2022/11/12 05:17:55;;;;;;;7.97;4.70;;;;;;;;;;5001935;28;20108;-70
2022/11/12 05:20:39;;;;;;;6.10;4.78;;;;;;;;;;5002883;28;20054;-70
2022/11/12 05:23:23;;;;;;;4.80;3.90;;;;;;;;;;5002724;28;20057;-70
2022/11/12 05:26:07;;;;;;;5.43;4.38;;;;;;;;;;4999347;28;20052;-70
2022/11/12 05:28:51;;;;;;;8.38;4.18;;;;;;;;;;5002012;28;20116;-70
2022/11/12 05:31:35;;;;;;;10.43;4.75;;;;;;;;;;5001578;28;20418;-72
2022/11/12 05:34:19;;;;;;;6.85;4.20;;;;;;;;;;5002986;28;20053;-71
2022/11/12 05:37:05;;;;;;;6.22;4.40;;;;;;;;;;5002445;28;20088;-70
2022/11/12 05:39:50;;;;;;;5.10;4.15;;;;;;;;;;5002051;28;20409;-71
2022/11/12 05:42:34;;;;;;;5.13;4.22;;;;;;;;;;5001258;28;20069;-71
2022/11/12 05:45:18;;;;;;;7.28;4.20;;;;;;;;;;4996262;28;21057;-70
2022/11/12 05:48:02;;;;;;;3.88;3.47;;;;;;;;;;4975198;28;20108;-71
2022/11/12 05:50:51;;;;;;;5.10;3.58;;;;;;;;;;5002928;28;20061;-72
2022/11/12 05:53:35;;;;;;;7.78;3.72;;;;;;;;;;5000671;28;20106;-71
2022/11/12 05:56:19;;;;;;;3.60;3.00;;;;;;;;;;5002150;28;20056;-71
2022/11/12 05:59:07;;;;;;;4.60;3.20;;;;;;;;;;5002251;28;20041;-71
2022/11/12 06:01:51;;;;;;;4.57;3.22;;;;;;;;;;5001112;28;20104;-71
2022/11/12 06:04:35;;;;;;;4.55;3.03;;;;;;;;;;5001832;28;20200;-72
2022/11/12 06:07:19;;;;;;;3.75;2.90;;;;;;;;;;5002092;28;20446;-71
2022/11/12 06:10:04;;;;;;;5.15;3.67;;;;;;;;;;5000377;28;20060;-71
2022/11/12 06:12:48;;;;;;;4.82;3.03;;;;;;;;;;5004679;28;20057;-71
2022/11/12 06:15:33;;;;;;;5.13;3.58;;;;;;;;;;5001639;28;20513;-71
2022/11/12 06:18:17;;;;;;;6.03;4.03;;;;;;;;;;5001549;28;20104;-72
2022/11/12 06:21:18;;;;;;;4.28;3.75;;;;;;;;;;5000558;28;20433;-71
2022/11/12 06:24:03;;;;;;;5.55;3.70;;;;;;;;;;4985978;28;20052;-71
2022/11/12 06:26:47;;;;;;;4.57;3.83;;;;;;;;;;5001384;28;20512;-71
2022/11/12 06:29:31;;;;;;;5.32;3.65;;;;;;;;;;5001325;28;20056;-71
2022/11/12 06:32:15;;;;;;;4.75;3.83;;;;;;;;;;5001561;28;20064;-72
2022/11/12 06:34:59;;;;;;;4.93;3.75;;;;;;;;;;5000513;28;20099;-71
2022/11/12 06:37:48;;;;;;;4.13;3.53;;;;;;;;;;5000776;28;20176;-71
2022/11/12 06:40:32;;;;;;;4.78;4.07;;;;;;;;;;5001528;28;20359;-71
2022/11/12 06:43:17;;;;;;;4.45;3.70;;;;;;;;;;5001647;28;20056;-71
2022/11/12 06:46:02;;;;;;;5.28;4.65;;;;;;;;;;4997747;28;20123;-71
2022/11/12 06:48:46;;;;;;;4.90;4.22;;;;;;;;;;5001254;28;20108;-71
2022/11/12 06:51:31;;;;;;;4.93;4.22;;;;;;;;;;5000930;28;20127;-72
2022/11/12 06:54:15;;;;;;;4.18;3.67;;;;;;;;;;5001799;28;20057;-71
2022/11/12 06:57:00;;;;;;;4.85;3.65;;;;;;;;;;5001026;28;20418;-72
2022/11/12 06:59:44;;;;;;;5.68;4.00;;;;;;;;;;5000823;28;20149;-71
2022/11/12 07:02:28;;;;;;;4.40;3.92;;;;;;;;;;5001400;28;20061;-71
2022/11/12 07:05:12;;;;;;;6.80;3.72;;;;;;;;;;5001656;28;20069;-71
2022/11/12 07:07:56;;;;;;;3.97;3.60;;;;;;;;;;4999986;28;20099;-72
2022/11/12 07:10:40;;;;;;;7.60;3.83;;;;;;;;;;4998458;28;20115;-72
2022/11/12 07:13:24;;;;;;;4.47;3.60;;;;;;;;;;5002134;28;20513;-72
2022/11/12 07:16:10;;;;;;;4.28;3.88;;;;;;;;;;4998882;28;20072;-72
2022/11/12 07:18:54;;;;;;;6.93;3.90;;;;;;;;;;5000840;28;21080;-72
2022/11/12 07:21:38;;;;;;;6.53;4.43;;;;;;;;;;5002368;28;20139;-73
2022/11/12 07:24:23;;;;;;;5.03;4.20;;;;;;;;;;5007250;28;20064;-72
2022/11/12 07:27:07;;;;;;;7.35;4.85;;;;;;;;;;5011820;28;20614;-73
2022/11/12 07:29:51;;;;;;;6.40;4.55;;;;;;;;;;4999758;28;20616;-73
2022/11/12 07:32:35;;;;;;;5.78;4.18;;;;;;;;;;5001408;28;20061;-73
2022/11/12 07:35:19;;;;;;;6.43;4.25;;;;;;;;;;5002165;28;20638;-73
2022/11/12 07:38:04;;;;;;;6.88;4.75;;;;;;;;;;4991539;28;20525;-72
2022/11/12 07:40:48;;;;;;;4.20;3.75;;;;;;;;;;5000362;28;20576;-72
2022/11/12 07:43:34;;;;;;;13.07;3.40;;;;;;;;;;5000082;28;20061;-72
2022/11/12 07:46:26;;;;;;;4.03;3.33;;;;;;;;;;5003294;28;20126;-72
2022/11/12 07:49:10;;;;;;;4.15;3.75;;;;;;;;;;5001356;28;20072;-72
2022/11/12 07:51:54;;;;;;;4.20;3.80;;;;;;;;;;4999226;28;20064;-72
2022/11/12 07:54:38;;;;;;;4.82;4.20;;;;;;;;;;5001052;28;20065;-72
2022/11/12 07:57:22;;;;;;;5.03;3.95;;;;;;;;;;4999346;28;21144;-73
2022/11/12 08:00:07;;;;;;;4.72;4.32;;;;;;;;;;4998702;28;20547;-73
2022/11/12 08:02:52;;;;;;;5.47;3.88;;;;;;;;;;5000873;28;20052;-72
2022/11/12 08:05:36;;;;;;;5.80;4.63;;;;;;;;;;5000842;28;20080;-72
2022/11/12 08:08:20;;;;;;;7.10;5.40;;;;;;;;;;5000659;28;20060;-72
2022/11/12 08:11:04;;;;;;;4.95;4.40;;;;;;;;;;5000631;28;20050;-72
2022/11/12 08:13:50;;;;;;;5.95;4.30;;;;;;;;;;4999496;28;20958;-72
2022/11/12 08:16:34;;;;;;;5.45;4.20;;;;;;;;;;5000551;28;20053;-72
2022/11/12 08:19:18;;;;;;;5.60;4.45;;;;;;;;;;4997996;28;20638;-73
2022/11/12 08:22:02;;;;;;;6.53;4.43;;;;;;;;;;4999938;28;20469;-72
2022/11/12 08:24:46;;;;;;;5.55;4.97;;;;;;;;;;5002450;28;20107;-73
2022/11/12 08:27:30;;;;;;;6.20;4.93;;;;;;;;;;5003283;28;20114;-74
2022/11/12 08:30:14;;;;;;;6.68;5.18;;;;;;;;;;5003423;28;20060;-73
2022/11/12 08:33:01;;;;;;;9.07;5.75;;;;;;;;;;5003690;28;20421;-72
2022/11/12 08:35:44;;;;;;;8.18;5.65;;;;;;;;;;5002489;28;20099;-72
2022/11/12 08:38:28;;;;;;;7.55;5.50;;;;;;;;;;5003262;28;20470;-74
2022/11/12 08:41:15;;;;;;;8.02;6.10;;;;;;;;;;5003689;28;20753;-73
2022/11/12 08:43:59;;;;;;;7.75;6.07;;;;;;;;;;5003266;28;20048;-73
2022/11/12 08:46:43;;;;;;;9.52;5.68;;;;;;;;;;5002839;28;20084;-73
2022/11/12 08:49:28;;;;;;;6.00;5.40;;;;;;;;;;5003100;28;20061;-73
2022/11/12 08:52:12;;;;;;;5.70;4.90;;;;;;;;;;5001234;28;20088;-73
2022/11/12 08:54:56;;;;;;;5.35;4.68;;;;;;;;;;5003231;28;20168;-74
2022/11/12 08:57:42;;;;;;;6.03;5.00;;;;;;;;;;5002153;28;20048;-73
2022/11/12 09:00:28;;;;;;;5.65;4.97;;;;;;;;;;5002203;28;20204;-73
2022/11/12 09:03:15;;;;;;;6.00;4.90;;;;;;;;;;5002224;28;20107;-73
2022/11/12 09:06:02;;;;;;;4.53;4.13;;;;;;;;;;5002773;28;20081;-71
2022/11/12 09:08:46;;;;;;;4.85;4.10;;;;;;;;;;5002061;28;20141;-71
2022/11/12 09:11:30;;;;;;;6.53;4.82;;;;;;;;;;5002265;28;20596;-74
2022/11/12 09:14:14;;;;;;;5.68;4.68;;;;;;;;;;5003420;28;20088;-71
2022/11/12 09:16:59;;;;;;;6.38;4.57;;;;;;;;;;5002518;28;20115;-73
2022/11/12 09:19:43;;;;;;;4.93;4.38;;;;;;;;;;5001284;28;20053;-73
2022/11/12 09:22:27;;;;;;;6.32;4.78;;;;;;;;;;5002661;28;20135;-73
2022/11/12 09:25:11;;;;;;;7.13;5.38;;;;;;;;;;5003077;28;20130;-72
2022/11/12 09:27:55;;;;;;;7.35;5.50;;;;;;;;;;5001013;28;20805;-73
2022/11/12 09:30:45;;;;;;;12.10;5.00;;;;;;;;;;5001854;28;20123;-72
2022/11/12 09:33:32;;;;;;;7.10;5.50;;;;;;;;;;5002561;28;20108;-73
2022/11/12 09:36:16;;;;;;;7.85;5.55;;;;;;;;;;4998916;28;20192;-72
2022/11/12 09:39:00;;;;;;;5.65;4.93;;;;;;;;;;5001868;28;20099;-72
2022/11/12 09:41:45;;;;;;;6.72;5.25;;;;;;;;;;5001239;28;20128;-73
2022/11/12 09:44:29;;;;;;;6.25;5.20;;;;;;;;;;5001173;28;20116;-73
2022/11/12 09:47:25;;;;;;;7.15;5.38;;;;;;;;;;5002420;28;20232;-72
2022/11/12 09:50:25;;;;;;;6.05;5.40;;;;;;;;;;5015042;28;20060;-73
2022/11/12 09:53:42;;;;;;;5.35;4.82;;;;;;;;;;5001445;28;20099;-73
2022/11/12 09:56:29;;;;;;;6.25;4.40;;;;;;;;;;5000051;28;20060;-73
2022/11/12 09:59:13;;;;;;;7.55;4.78;;;;;;;;;;5002054;28;20096;-73
2022/11/12 10:02:17;;;;;;;7.50;4.78;;;;;;;;;;5001908;28;20129;-73
2022/11/12 10:05:11;;;;;;;5.00;4.35;;;;;;;;;;5001442;28;20068;-73
2022/11/12 10:08:17;;;;;;;6.57;5.22;;;;;;;;;;5001317;28;20084;-73
2022/11/12 10:11:01;;;;;;;7.30;5.40;;;;;;;;;;5000057;28;20522;-72
2022/11/12 10:14:04;;;;;;;5.32;4.70;;;;;;;;;;5001328;28;20415;-72
2022/11/12 10:17:12;;;;;;;6.15;4.63;;;;;;;;;;5001186;28;20100;-73
2022/11/12 10:20:17;;;;;;;6.40;4.80;;;;;;;;;;5000924;28;20179;-73
2022/11/12 10:23:37;;;;;;;6.30;4.85;;;;;;;;;;4995221;28;20084;-72
2022/11/12 10:26:24;;;;;;;5.45;4.82;;;;;;;;;;4987307;28;20057;-72
2022/11/12 10:29:17;;;;;;;5.60;4.85;;;;;;;;;;5001174;28;20185;-73
2022/11/12 10:32:02;;;;;;;5.00;4.50;;;;;;;;;;5001751;28;20057;-73
2022/11/12 10:34:46;;;;;;;4.47;4.07;;;;;;;;;;5001596;28;20099;-73
2022/11/12 10:37:38;;;;;;;7.45;4.30;;;;;;;;;;5000216;28;20052;-72
2022/11/12 10:40:36;;;;;;;7.95;3.83;;;;;;;;;;4998772;28;20453;-72
2022/11/12 10:43:24;;;;;;;5.10;4.32;;;;;;;;;;5001229;28;20092;-72
2022/11/12 10:46:19;;;;;;;5.43;4.30;;;;;;;;;;4998008;28;20062;-73
2022/11/12 10:49:21;;;;;;;4.85;4.22;;;;;;;;;;5000182;28;20049;-73
2022/11/12 10:52:19;;;;;;;5.22;4.47;;;;;;;;;;4986682;28;20072;-73
2022/11/12 10:55:19;;;;;;;6.03;4.53;;;;;;;;;;5001238;28;20040;-72
2022/11/12 10:58:03;;;;;;;6.05;4.13;;;;;;;;;;5014440;28;20076;-73
2022/11/12 11:01:02;;;;;;;4.50;4.10;;;;;;;;;;5001140;28;20057;-73
2022/11/12 11:03:53;;;;;;;5.80;4.30;;;;;;;;;;5000313;28;20068;-72
2022/11/12 11:06:37;;;;;;;6.85;3.97;;;;;;;;;;5001161;28;20064;-73
2022/11/12 11:09:24;;;;;;;4.95;4.18;;;;;;;;;;4999945;28;20789;-72
2022/11/12 11:12:26;;;;;;;4.68;4.18;;;;;;;;;;4998401;28;20104;-73
2022/11/12 11:15:17;;;;;;;5.55;4.43;;;;;;;;;;4995971;28;20064;-72
2022/11/12 11:18:02;;;;;;;7.38;4.45;;;;;;;;;;5014194;28;20123;-73
2022/11/12 11:20:58;;;;;;;4.63;4.10;;;;;;;;;;5000112;28;20409;-72
2022/11/12 11:24:23;;;;;;;4.97;4.38;;;;;;;;;;4996545;28;20184;-73
2022/11/12 11:27:39;;;;;;;6.60;4.13;;;;;;;;;;4999856;28;20461;-73
2022/11/12 11:30:24;;;;;;;5.28;4.78;;;;;;;;;;4971169;28;20069;-73
2022/11/12 11:33:20;;;;;;;5.85;4.97;;;;;;;;;;5000157;28;20053;-73
2022/11/12 11:36:35;;;;;;;4.88;4.35;;;;;;;;;;5014265;28;20189;-72
2022/11/12 11:39:29;;;;;;;3.83;3.42;;;;;;;;;;5012536;28;20108;-72
2022/11/12 11:42:41;;;;;;;5.93;4.20;;;;;;;;;;4983269;28;20119;-74
2022/11/12 11:45:31;;;;;;;;;;;;;;;;;;5000819;28;20547;-73
2022/11/12 11:48:46;;;;;;;4.20;3.80;;;;;;;;;;5012385;28;20428;-73
2022/11/12 11:52:00;;;;;;;5.15;3.90;;;;;;;;;;5000331;28;20058;-73
2022/11/12 11:54:52;;;;;;;6.22;4.43;;;;;;;;;;4997263;28;20119;-72
2022/11/12 11:58:00;;;;;;;5.03;4.53;;;;;;;;;;4999975;28;20096;-74
2022/11/12 12:01:37;;;;;;;6.88;4.60;;;;;;;;;;5003941;28;20188;-72
2022/11/12 12:04:32;;;;;;;8.20;4.53;;;;;;;;;;4963949;28;20120;-72
2022/11/12 12:07:37;;;;;;;5.25;4.22;;;;;;;;;;5003986;28;20438;-73
2022/11/12 12:10:42;;;;;;;4.88;4.20;;;;;;;;;;5001017;28;20591;-73
2022/11/12 12:13:46;;;;;;;4.82;4.35;;;;;;;;;;4999003;28;20700;-72
2022/11/12 12:16:48;;;;;;;5.07;4.22;;;;;;;;;;4989069;28;20052;-72
2022/11/12 12:20:29;;;;;;;4.20;3.80;;;;;;;;;;5003833;28;20088;-73
2022/11/12 12:23:25;;;;;;;5.57;3.90;;;;;;;;;;4981411;28;20454;-73
2022/11/12 12:26:14;;;;;;;8.85;4.75;;;;;;;;;;5015925;28;20061;-72
2022/11/12 12:29:01;;;;;;;6.90;4.70;;;;;;;;;;5003470;28;20808;-73
2022/11/12 12:31:59;;;;;;;4.93;4.40;;;;;;;;;;5003348;28;20521;-72
2022/11/12 12:34:47;;;;;;;4.60;4.20;;;;;;;;;;5004078;28;20057;-72
2022/11/12 12:37:40;;;;;;;5.90;4.40;;;;;;;;;;5002898;28;20057;-72
2022/11/12 12:40:47;;;;;;;4.88;4.38;;;;;;;;;;5001116;28;20521;-74
2022/11/12 12:43:35;;;;;;;5.35;4.70;;;;;;;;;;5003467;28;20057;-72
2022/11/12 12:46:22;;;;;;;5.90;4.45;;;;;;;;;;5000993;28;20053;-73
2022/11/12 12:49:14;;;;;;;6.70;4.60;;;;;;;;;;5002170;28;20088;-73
2022/11/12 12:51:58;;;;;;;5.93;4.70;;;;;;;;;;5002807;28;20183;-72
2022/11/12 12:54:51;;;;;;;5.45;4.80;;;;;;;;;;5003716;28;20092;-72
2022/11/12 12:57:38;;;;;;;4.60;4.20;;;;;;;;;;5002564;28;20411;-73
2022/11/12 13:00:30;;;;;;;10.43;4.47;;;;;;;;;;5002100;28;20120;-73
2022/11/12 13:03:43;;;;;;;6.57;4.85;;;;;;;;;;5003009;28;20060;-73
2022/11/12 13:06:27;;;;;;;5.10;4.35;;;;;;;;;;5013605;28;20060;-74
2022/11/12 13:09:11;;;;;;;5.18;4.43;;;;;;;;;;5002624;28;20104;-73
2022/11/12 13:15:06;;;;;;;5.07;4.25;;;;;;;;;;5003338;28;20049;-72
2022/11/12 13:17:51;;;;;;;5.90;4.65;;;;;;;;;;5002368;28;20410;-73
2022/11/12 13:20:40;;;;;;;4.60;4.20;;;;;;;;;;5002717;28;20057;-72
2022/11/12 13:26:52;;;;;;;6.43;4.50;;;;;;;;;;5010882;28;20640;-71
2022/11/12 13:29:36;;;;;;;6.88;5.10;;;;;;;;;;5001923;28;20132;-72
2022/11/12 13:32:39;;;;;;;6.65;4.78;;;;;;;;;;5003081;28;20072;-72
2022/11/12 13:35:25;;;;;;;6.75;4.72;;;;;;;;;;5015725;28;20064;-72
2022/11/12 13:38:14;;;;;;;7.53;5.22;;;;;;;;;;5015381;28;20549;-72
2022/11/12 13:42:46;;;;;;;8.88;5.82;;;;;;;;;;5003072;28;20112;-72
2022/11/12 13:44:26;;;;;;;5.95;5.32;;;;;;;;;;5012369;28;20111;-72
2022/11/12 13:47:19;;;;;;;6.43;5.32;;;;;;;;;;4999186;28;20056;-71
2022/11/12 13:50:07;;;;;;;10.25;5.05;;;;;;;;;;5002063;28;20061;-71
2022/11/12 13:52:52;;;;;;;6.85;5.15;;;;;;;;;;5002699;28;20080;-71
2022/11/12 13:55:36;;;;;;;5.55;5.05;;;;;;;;;;5001241;28;20053;-71
2022/11/12 13:58:34;;;;;;;7.70;5.38;;;;;;;;;;5002163;28;20056;-71
2022/11/12 14:01:20;;;;;;;5.97;5.20;;;;;;;;;;5002269;28;21300;-72
2022/11/12 14:04:06;;;;;;;6.28;5.32;;;;;;;;;;5001900;28;20135;-72
2022/11/12 14:07:01;;;;;;;8.63;5.10;;;;;;;;;;5001391;28;20100;-72
2022/11/12 14:10:22;;;;;;;5.90;5.13;;;;;;;;;;5000779;28;20061;-71
2022/11/12 14:13:33;;;;;;;6.25;5.15;;;;;;;;;;5002193;28;20069;-71
2022/11/12 14:16:33;;;;;;;6.30;5.03;;;;;;;;;;4995440;28;20131;-73
2022/11/12 14:19:55;;;;;;;9.82;5.03;;;;;;;;;;5001649;28;20426;-73
2022/11/12 14:22:44;;;;;;;6.78;5.38;;;;;;;;;;4997571;28;20253;-73
2022/11/12 14:25:28;;;;;;;6.38;5.40;;;;;;;;;;5001860;28;20060;-71
2022/11/12 14:28:26;;;;;;;5.38;4.88;;;;;;;;;;4997799;28;20354;-71
2022/11/12 14:31:13;;;;;;;8.27;5.53;;;;;;;;;;5001437;28;20434;-71
2022/11/12 14:34:26;;;;;;;5.32;4.82;;;;;;;;;;5000996;28;20510;-71
2022/11/12 14:37:37;;;;;;;5.60;4.90;;;;;;;;;;5001674;28;20455;-73
2022/11/12 14:40:30;;;;;;;6.22;5.38;;;;;;;;;;4989674;28;20060;-73
2022/11/12 14:43:22;;;;;;;10.57;5.60;;;;;;;;;;5001294;28;20080;-73
2022/11/12 14:46:07;;;;;;;5.30;4.80;;;;;;;;;;5014381;28;20056;-73
2022/11/12 14:49:02;;;;;;;6.22;5.60;;;;;;;;;;5000682;28;20576;-72
2022/11/12 14:51:52;;;;;;;6.63;5.50;;;;;;;;;;5000561;28;20234;-72
2022/11/12 14:55:15;;;;;;;8.73;5.25;;;;;;;;;;5001381;28;20572;-72
2022/11/12 14:58:01;;;;;;;6.57;5.43;;;;;;;;;;4914276;29;20188;-71
2022/11/12 15:00:47;;;;;;;7.47;6.00;;;;;;;;;;4999897;28;20265;-72
2022/11/12 15:03:32;;;;;;;6.85;6.10;;;;;;;;;;5001121;28;20103;-72
2022/11/12 15:06:30;;;;;;;7.80;6.80;;;;;;;;;;4984929;28;20738;-71
2022/11/12 15:09:30;;;;;;;7.72;6.80;;;;;;;;;;4999561;28;20534;-72
2022/11/12 15:12:20;;;;;;;9.32;6.75;;;;;;;;;;4997630;28;20088;-70
2022/11/12 15:15:09;;;;;;;10.32;7.63;;;;;;;;;;5000730;28;20049;-71
2022/11/12 15:18:18;;;;;;;9.35;6.35;;;;;;;;;;5000181;28;20241;-71
2022/11/12 15:21:14;;;;;;;11.10;7.40;;;;;;;;;;5000474;28;20049;-71
2022/11/12 15:24:10;;;;;;;8.55;7.60;;;;;;;;;;4999510;28;20064;-72
2022/11/12 15:26:56;;;;;;;12.60;9.32;;;;;;;;;;5000897;28;20056;-73
2022/11/12 15:29:40;;;;;;;16.00;10.55;;;;;;;;;;5000075;28;20147;-74
2022/11/12 15:32:24;;;;;;;10.45;8.45;;;;;;;;;;5001417;28;20060;-73
2022/11/12 15:35:24;;;;;;;17.23;9.73;;;;;;;;;;4998475;28;20053;-73
2022/11/12 15:38:31;;;;;;;11.88;9.18;;;;;;;;;;4988106;28;20060;-73
2022/11/12 15:41:29;;;;;;;11.63;9.00;;;;;;;;;;5004972;28;20099;-74
2022/11/12 15:44:13;;;;;;;15.25;11.32;;;;;;;;;;5002377;28;20056;-73
2022/11/12 15:46:57;;;;;;;14.05;10.48;;;;;;;;;;5004335;28;20052;-73
2022/11/12 15:49:50;;;;;;;18.15;10.50;;;;;;;;;;5003557;28;20061;-74
2022/11/12 15:52:34;;;;;;;18.48;12.00;;;;;;;;;;5003568;28;20116;-73
2022/11/12 15:55:18;;;;;;;14.82;11.50;;;;;;;;;;5004030;28;20139;-73
2022/11/12 15:58:04;;;;;;;74.68;35.08;;;;;;;;;;5002792;28;20072;-73
2022/11/12 16:00:48;;;;;;;21.55;14.60;;;;;;;;;;5004412;28;20057;-74
2022/11/12 16:03:32;;;;;;;50.50;26.10;;;;;;;;;;5001030;28;20057;-72
2022/11/12 16:06:16;;;;;;;48.72;31.00;;;;;;;;;;5001307;28;20061;-73
2022/11/12 16:09:00;;;;;;;33.00;22.00;;;;;;;;;;5004011;28;20075;-73
2022/11/12 16:11:45;;;;;;;19.33;14.98;;;;;;;;;;5003861;28;20441;-73
2022/11/12 16:14:29;;;;;;;14.80;11.55;;;;;;;;;;5004459;28;20060;-73
2022/11/12 16:17:16;;;;;;;16.88;12.32;;;;;;;;;;5002167;28;20108;-74
2022/11/12 16:20:00;;;;;;;25.60;16.73;;;;;;;;;;5003308;28;20056;-72
2022/11/12 16:22:44;;;;;;;91.28;40.83;;;;;;;;;;5004018;28;20107;-73
2022/11/12 16:25:31;;;;;;;39.85;24.88;;;;;;;;;;5004476;28;20052;-73
2022/11/12 16:28:17;;;;;;;29.70;19.48;;;;;;;;;;4999016;28;20133;-73
2022/11/12 16:31:01;;;;;;;40.58;24.10;;;;;;;;;;5003323;28;20426;-73
2022/11/12 16:33:45;;;;;;;21.13;11.55;;;;;;;;;;5003285;28;20406;-73
2022/11/12 16:36:29;;;;;;;20.80;13.38;;;;;;;;;;5003992;28;20457;-74
2022/11/12 16:39:14;;;;;;;23.05;13.57;;;;;;;;;;5002736;28;20623;-73
2022/11/12 16:41:58;;;;;;;50.03;25.58;;;;;;;;;;5001870;28;20057;-73
2022/11/12 16:44:42;;;;;;;83.72;43.17;;;;;;;;;;5002824;28;20061;-74
2022/11/12 16:47:27;;;;;;;95.22;42.38;;;;;;;;;;5003434;28;20459;-73
2022/11/12 16:50:12;;;;;;;43.53;24.05;;;;;;;;;;4999706;28;20445;-73
2022/11/12 16:52:56;;;;;;;61.22;36.60;;;;;;;;;;5003307;28;20699;-72
2022/11/12 16:55:40;;;;;;;49.25;30.33;;;;;;;;;;5003035;28;20143;-73
2022/11/12 16:58:24;;;;;;;24.23;17.30;;;;;;;;;;5003558;28;20049;-73
2022/11/12 17:01:23;;;;;;;20.73;15.27;;;;;;;;;;5002377;28;20080;-73
2022/11/12 17:04:07;;;;;;;43.20;28.42;;;;;;;;;;5002613;28;20052;-74
2022/11/12 17:06:51;;;;;;;54.20;31.50;;;;;;;;;;5003255;28;20390;-72
2022/11/12 17:09:35;;;;;;;27.77;18.73;;;;;;;;;;5002003;28;20092;-74
2022/11/12 17:12:19;;;;;;;24.33;17.10;;;;;;;;;;5000827;28;20145;-72